TimeEDT,TemperatureF,Dew PointF,Humidity,Sea Level PressureIn,VisibilityMPH,Wind Direction,Wind SpeedMPH,Gust SpeedMPH,PrecipitationIn,Events,Conditions,WindDirDegrees,DateUTC
12:15 AM,75.2,69.8,83,30.12,10.0,Calm,Calm,-,N/A,,Scattered Clouds,0,2013-07-10 04:15:00
12:35 AM,73.4,69.8,88,30.12,10.0,Calm,Calm,-,N/A,,Clear,0,2013-07-10 04:35:00
12:55 AM,73.4,69.8,88,30.11,10.0,Calm,Calm,-,N/A,,Clear,0,2013-07-10 04:55:00
1:15 AM,73.4,71.6,94,30.11,10.0,Calm,Calm,-,N/A,,Clear,0,2013-07-10 05:15:00
1:35 AM,73.4,69.8,88,30.11,10.0,Calm,Calm,-,N/A,,Clear,0,2013-07-10 05:35:00
1:55 AM,71.6,69.8,94,30.10,10.0,Calm,Calm,-,N/A,,Clear,0,2013-07-10 05:55:00
2:15 AM,71.6,69.8,94,30.11,10.0,Calm,Calm,-,N/A,,Clear,0,2013-07-10 06:15:00
2:35 AM,71.6,69.8,94,30.10,10.0,Calm,Calm,-,N/A,,Clear,0,2013-07-10 06:35:00
2:55 AM,71.6,69.8,94,30.10,10.0,Calm,Calm,-,N/A,,Clear,0,2013-07-10 06:55:00
3:15 AM,71.6,69.8,94,30.10,10.0,Calm,Calm,-,N/A,,Clear,0,2013-07-10 07:15:00
3:55 AM,71.6,69.8,94,30.10,10.0,Calm,Calm,-,N/A,,Clear,0,2013-07-10 07:55:00
4:15 AM,69.8,69.8,100,30.10,7.0,Calm,Calm,-,N/A,,Scattered Clouds,0,2013-07-10 08:15:00
4:35 AM,69.8,69.8,100,30.10,10.0,Calm,Calm,-,N/A,,Scattered Clouds,0,2013-07-10 08:35:00
4:55 AM,69.8,69.8,100,30.09,10.0,Calm,Calm,-,N/A,,Scattered Clouds,0,2013-07-10 08:55:00
5:15 AM,69.8,69.8,100,30.09,10.0,Calm,Calm,-,N/A,,Clear,0,2013-07-10 09:15:00
5:35 AM,69.8,69.8,100,30.09,10.0,Calm,Calm,-,N/A,,Clear,0,2013-07-10 09:35:00
5:55 AM,69.8,69.8,100,30.09,10.0,Calm,Calm,-,N/A,,Clear,0,2013-07-10 09:55:00
6:15 AM,69.8,69.8,100,30.09,7.0,Calm,Calm,-,N/A,,Clear,0,2013-07-10 10:15:00
6:35 AM,69.8,69.8,100,30.10,10.0,Calm,Calm,-,N/A,,Clear,0,2013-07-10 10:35:00
6:55 AM,69.8,69.8,100,30.10,10.0,Calm,Calm,-,N/A,,Clear,0,2013-07-10 10:55:00
7:15 AM,69.8,69.8,100,30.09,10.0,Calm,Calm,-,N/A,,Clear,0,2013-07-10 11:15:00
7:35 AM,71.6,71.6,100,30.09,10.0,Calm,Calm,-,N/A,,Clear,0,2013-07-10 11:35:00
7:55 AM,73.4,71.6,94,30.10,10.0,Calm,Calm,-,N/A,,Clear,0,2013-07-10 11:55:00
8:15 AM,75.2,73.4,94,30.10,10.0,Calm,Calm,-,N/A,,Clear,0,2013-07-10 12:15:00
8:35 AM,77.0,73.4,89,30.11,10.0,Calm,Calm,-,N/A,,Clear,0,2013-07-10 12:35:00
8:55 AM,78.8,73.4,83,30.11,10.0,Calm,Calm,-,N/A,,Clear,0,2013-07-10 12:55:00
9:15 AM,80.6,73.4,79,30.11,10.0,Calm,Calm,-,N/A,,Mostly Cloudy,0,2013-07-10 13:15:00
9:35 AM,80.6,71.6,74,30.12,10.0,SSE,3.5,-,N/A,,Mostly Cloudy,160,2013-07-10 13:35:00
9:55 AM,82.4,71.6,70,30.11,10.0,Calm,Calm,-,N/A,,Scattered Clouds,0,2013-07-10 13:55:00
10:15 AM,82.4,71.6,70,30.11,10.0,Calm,Calm,-,N/A,,Clear,0,2013-07-10 14:15:00
10:35 AM,82.4,71.6,70,30.11,10.0,Calm,Calm,-,N/A,,Scattered Clouds,0,2013-07-10 14:35:00
10:55 AM,84.2,69.8,62,30.11,5.0,Calm,Calm,-,N/A,,Haze,0,2013-07-10 14:55:00
11:15 AM,84.2,69.8,62,30.11,7.0,Calm,Calm,-,N/A,,Scattered Clouds,0,2013-07-10 15:15:00
11:35 AM,86.0,69.8,58,30.10,7.0,Calm,Calm,-,N/A,,Scattered Clouds,0,2013-07-10 15:35:00
11:55 AM,86.0,69.8,58,30.10,7.0,North,3.5,-,N/A,,Mostly Cloudy,10,2013-07-10 15:55:00
12:15 PM,86.0,69.8,58,30.10,7.0,NE,3.5,-,N/A,,Mostly Cloudy,40,2013-07-10 16:15:00
12:35 PM,87.8,69.8,55,30.10,10.0,Calm,Calm,-,N/A,,Mostly Cloudy,0,2013-07-10 16:35:00
12:55 PM,87.8,68.0,52,30.09,7.0,ENE,4.6,-,N/A,,Scattered Clouds,70,2013-07-10 16:55:00
1:15 PM,87.8,68.0,52,30.09,10.0,SE,3.5,-,N/A,,Scattered Clouds,130,2013-07-10 17:15:00
1:35 PM,89.6,69.8,52,30.08,10.0,ENE,5.8,-,N/A,,Mostly Cloudy,60,2013-07-10 17:35:00
1:55 PM,89.6,68.0,49,30.07,10.0,Calm,Calm,-,N/A,,Mostly Cloudy,0,2013-07-10 17:55:00
2:15 PM,89.6,68.0,49,30.06,10.0,Calm,Calm,-,N/A,,Scattered Clouds,0,2013-07-10 18:15:00
2:35 PM,91.4,68.0,46,30.04,10.0,NNE,3.5,-,N/A,,Scattered Clouds,20,2013-07-10 18:35:00
2:55 PM,91.4,68.0,46,30.03,10.0,Calm,Calm,-,N/A,,Scattered Clouds,0,2013-07-10 18:55:00
3:15 PM,89.6,68.0,49,30.02,10.0,Calm,Calm,-,N/A,,Scattered Clouds,0,2013-07-10 19:15:00
3:35 PM,89.6,68.0,49,30.02,10.0,ENE,4.6,-,N/A,,Mostly Cloudy,60,2013-07-10 19:35:00
3:55 PM,91.4,69.8,49,30.01,10.0,East,4.6,-,N/A,,Mostly Cloudy,80,2013-07-10 19:55:00
4:15 PM,91.4,68.0,46,30.00,10.0,NE,3.5,-,N/A,,Scattered Clouds,40,2013-07-10 20:15:00
4:35 PM,91.4,68.0,46,29.99,10.0,Calm,Calm,-,N/A,,Clear,0,2013-07-10 20:35:00
4:55 PM,91.4,68.0,46,29.98,10.0,Calm,Calm,-,N/A,,Scattered Clouds,0,2013-07-10 20:55:00
5:15 PM,91.4,68.0,46,29.99,10.0,ENE,3.5,-,N/A,,Scattered Clouds,60,2013-07-10 21:15:00
5:35 PM,91.4,68.0,46,29.99,10.0,ESE,4.6,-,N/A,,Overcast,110,2013-07-10 21:35:00
5:55 PM,91.4,66.2,43,29.98,10.0,Calm,Calm,-,N/A,,Scattered Clouds,0,2013-07-10 21:55:00
6:15 PM,91.4,66.2,43,29.98,10.0,Calm,Calm,-,N/A,,Clear,0,2013-07-10 22:15:00
6:35 PM,89.6,68.0,49,29.98,10.0,East,3.5,-,N/A,,Scattered Clouds,100,2013-07-10 22:35:00
6:55 PM,89.6,68.0,49,29.97,10.0,Calm,Calm,-,N/A,,Scattered Clouds,0,2013-07-10 22:55:00
7:15 PM,86.0,71.6,62,29.97,10.0,NE,4.6,-,N/A,,Scattered Clouds,50,2013-07-10 23:15:00
7:35 PM,86.0,69.8,58,29.97,10.0,Calm,Calm,-,N/A,Thunderstorm,Scattered Clouds,0,2013-07-10 23:35:00
7:55 PM,84.2,69.8,62,29.97,10.0,East,3.5,-,N/A,Thunderstorm,Thunderstorm,90,2013-07-10 23:55:00
8:15 PM,82.4,69.8,66,29.99,5.0,West,5.8,-,N/A,Thunderstorm,Unknown,270,2013-07-11 00:15:00
8:35 PM,80.6,69.8,70,29.99,10.0,Calm,Calm,-,N/A,Thunderstorm,Thunderstorm,0,2013-07-11 00:35:00
8:55 PM,78.8,69.8,74,30.00,10.0,NW,3.5,-,N/A,Thunderstorm,Thunderstorm,320,2013-07-11 00:55:00
9:15 PM,78.8,69.8,74,30.02,10.0,SW,4.6,-,N/A,,Overcast,230,2013-07-11 01:15:00
9:35 PM,77.0,69.8,78,30.03,10.0,SW,4.6,-,N/A,,Overcast,220,2013-07-11 01:35:00
9:55 PM,77.0,69.8,78,30.03,10.0,WSW,3.5,-,N/A,Thunderstorm,Overcast,240,2013-07-11 01:55:00
10:15 PM,77.0,69.8,78,30.05,10.0,Calm,Calm,-,N/A,Rain-Thunderstorm,Light Thunderstorms and Rain,0,2013-07-11 02:15:00
10:35 PM,75.2,71.6,89,30.06,10.0,Calm,Calm,-,N/A,Rain-Thunderstorm,Light Thunderstorms and Rain,0,2013-07-11 02:35:00
10:55 PM,73.4,71.6,94,30.06,2.5,Calm,Calm,-,0.18,Rain-Thunderstorm,Heavy Thunderstorms and Rain,0,2013-07-11 02:55:00
11:15 PM,73.4,71.6,94,30.07,7.0,SW,3.5,-,0.03,Rain-Thunderstorm,Light Thunderstorms and Rain,230,2013-07-11 03:15:00
11:35 PM,73.4,71.6,94,30.07,10.0,Calm,Calm,-,0.04,Rain-Thunderstorm,Light Thunderstorms and Rain,0,2013-07-11 03:35:00
11:55 PM,73.4,71.6,94,30.06,10.0,Calm,Calm,-,0.04,,Overcast,0,2013-07-11 03:55:00